Domov               UVHVVR             MKGP            O straneh              
ZDRAVSTVENO VARSTVO RASTLIN
  MREŽA AGROMET. POSTAJ
 ► PROGNOSTIČNA OBVESTILA
AGROMETEOROLOŠKI PODATKI -
ARSO
OBVLADOVANJE TVEGANJ ZARADI
NEUGODNIH VREMENSKIH RAZMER
  ► NARAVNE NESREČE
  ► SUŠA/MOČA
  ► NAMAKANJE
  ► ŽLED (gozdarstvo)
KARTOGRAFSKI PRIKAZI
SPLETNE POVEZAVE
PROJEKTI IN PUBLIKACIJE

AGROMETEOROLOŠKA MREŽA: VREMENSKE POSTAJE IN FENOLOŠKA OPAZOVANJA

Pregled podatkov za lokacijo Žabnica (Dorfarje), meteorološka postaja 41375

Pregled senzorjev na lokaciji

ID Ime Zadnja
vrednost
Datum in čas
zadnje
spremembe
(Lokalni čas)
Tip
senzorja
3849 Omočenost lista (U) 10 U 6.7.2020 02:00 A730WET
3846 Padavine (mm) 0 mm 6.7.2020 02:00 Generic 0.2 mm
3847 Relativna vlaga 2 m (% RH) 95.53 % RH 6.7.2020 02:00 Generic 0 - 100 %
3848 Temperatura 2 m (°C) 15.78 °C 6.7.2020 02:00 Generic -40 - +60 °C

Pregled podatkov zadnjih 24 ur

Zap.
št.
Datum in čas
(Centralno
evropski čas)
Žabnica (Dorfarje)
Omočenost
lista
Padavine Relativna
vlaga
2
m
Temperatura
2
m
1 6.7.2020 02:30
2 6.7.2020 02:00
3 6.7.2020 01:30
4 6.7.2020 01:00 10 0 95.5 15.8
5 6.7.2020 00:30 10 0 95.2 16.1
6 6.7.2020 00:00 10 0 93.7 16.4
7 5.7.2020 23:30 10 0 90.8 17
8 5.7.2020 23:00 10 0 88.1 17.8
9 5.7.2020 22:30 6 0 85.6 18.3
10 5.7.2020 22:00 2 0 83.6 18.9
11 5.7.2020 21:30 1 0 80.5 19.5
12 5.7.2020 21:00 1 0 79.3 20.1
13 5.7.2020 20:30 0 0 75 21.2
14 5.7.2020 20:00 0 0 68.2 22.5
15 5.7.2020 19:30 0 0 63 24.2
16 5.7.2020 19:00 0 0 60.9 25.3
17 5.7.2020 18:30 0 0 56 26
18 5.7.2020 18:00 0 0 53.9 26.7
19 5.7.2020 17:30 0 0 53.1 27.1
20 5.7.2020 17:00 0 0 51.4 27.5
21 5.7.2020 16:30 0 0 50.1 27.6
22 5.7.2020 16:00 0 0 50.1 27.7
23 5.7.2020 15:30 0 0 50.1 27.6
24 5.7.2020 15:00 0 0 48 27.9
25 5.7.2020 14:30 0 0 50.5 27.4
26 5.7.2020 14:00 0 0 48.4 27.4
27 5.7.2020 13:30 0 0 50.5 26.8
28 5.7.2020 13:00 0 0 50.7 26.6
29 5.7.2020 12:30 0 0 52.4 26
30 5.7.2020 12:00 0 0 50.7 25.8
31 5.7.2020 11:30 0 0 51.1 25.7
32 5.7.2020 11:00 0 0 52.6 25.2
33 5.7.2020 10:30 0 0 52.5 24.8
34 5.7.2020 10:00 0 0 54.6 24.4
35 5.7.2020 09:30 0 0 61.1 23.3
36 5.7.2020 09:00 0 0 64.4 22.3
37 5.7.2020 08:30 0 0 67.5 21.6
38 5.7.2020 08:00 0 0 73.9 20.2
39 5.7.2020 07:30 0 0 78.1 18.9
40 5.7.2020 07:00 0 0 82.5 17.4
41 5.7.2020 06:30 1 0 86.9 16.2
42 5.7.2020 06:00 9 0 95 14.3
43 5.7.2020 05:30 10 0 99.3 12.9
44 5.7.2020 05:00 10 0 99.9 11.5
45 5.7.2020 04:30 10 0 99.9 11.4
46 5.7.2020 04:00 10 0 99.5 11.4
47 5.7.2020 03:30 10 0 99.5 11.8
48 5.7.2020 03:00 10 0 98.9 12
© 2011 Ministrstvo za kmetijstvo, gozdarstvo in prehrano. Vse pravice pridržane.